Terminal Aerodrome Forecast
Issued by NWS Albany, NY

Home | Current Version | Previous Version | Text Only | Print | Product List | Glossary On
Versions: 1 2 3 4 5 6 7 8 9 10 11 12 13 14 15 16 17 18 19 20 21 22 23 24
799
FTUS41 KALY 192331
TAFPOU
TAF
KPOU 192331Z 2000/2024 02010KT P6SM VCSH OVC060
     FM200300 01007KT P6SM VCSH BKN025 BKN060
     FM201400 35010KT P6SM BKN030
     FM201900 36011G19KT P6SM BKN035=

USA.gov is the U.S. government's official web portal to all federal, state and local government web resources and services.